Time;durP1;ratioP1;P1;durP2;ratioP2;P2;SDS_P1;SDS_P2;PMS_P1;PMS_P2;Temp;Humidity;BMP_temperature;BMP_pressure;BME280_temperature;BME280_humidity;BME280_pressure;Samples;Min_cycle;Max_cycle;Signal;HPM_P1;HPM_P2
2023/12/19 00:00:59;;;;;;;4.60;2.00;;;2.20;99.90;;;;;;4985906;28;20430;-61
2023/12/19 00:03:24;;;;;;;4.70;2.23;;;2.30;99.90;;;;;;4989199;28;20555;-61
2023/12/19 00:05:50;;;;;;;2.90;1.73;;;2.20;99.90;;;;;;4985566;28;20636;-61
2023/12/19 00:08:15;;;;;;;6.70;2.00;;;2.30;99.90;;;;;;4991985;28;20211;-62
2023/12/19 00:10:42;;;;;;;4.57;2.60;;;2.40;99.90;;;;;;4989875;28;20187;-62
2023/12/19 00:13:08;;;;;;;3.83;1.87;;;2.20;99.90;;;;;;4992436;28;20177;-62
2023/12/19 00:15:33;;;;;;;5.17;1.87;;;2.10;99.90;;;;;;4985614;28;20907;-62
2023/12/19 00:17:59;;;;;;;4.30;2.00;;;2.10;99.90;;;;;;4992550;28;20652;-61
2023/12/19 00:20:25;;;;;;;5.43;1.47;;;2.10;99.90;;;;;;4984804;28;20626;-62
2023/12/19 00:22:50;;;;;;;4.30;1.57;;;2.10;99.90;;;;;;4986107;28;20569;-62
2023/12/19 00:25:16;;;;;;;3.13;1.73;;;2.20;99.90;;;;;;4984499;28;20470;-62
2023/12/19 00:27:42;;;;;;;3.37;1.40;;;2.30;99.90;;;;;;4995109;28;20203;-62
2023/12/19 00:30:08;;;;;;;2.87;1.50;;;2.40;99.90;;;;;;4995182;28;20622;-62
2023/12/19 00:32:33;;;;;;;2.23;1.57;;;2.40;99.90;;;;;;4988371;28;20637;-62
2023/12/19 00:34:59;;;;;;;3.20;1.60;;;2.60;99.90;;;;;;4995109;28;20196;-62
2023/12/19 00:37:25;;;;;;;4.30;1.60;;;2.60;99.90;;;;;;4981691;28;20680;-62
2023/12/19 00:39:50;;;;;;;5.10;2.10;;;2.60;99.90;;;;;;4985733;28;20533;-62
2023/12/19 00:42:16;;;;;;;2.03;1.10;;;2.70;99.90;;;;;;4978261;28;20206;-62
2023/12/19 00:44:41;;;;;;;2.13;0.90;;;2.70;99.90;;;;;;4988046;28;20223;-62
2023/12/19 00:47:07;;;;;;;2.33;1.00;;;2.80;99.90;;;;;;4994651;28;20700;-62
2023/12/19 00:49:32;;;;;;;9.43;1.77;;;2.90;99.90;;;;;;4988457;28;20179;-62
2023/12/19 00:52:00;;;;;;;3.07;1.30;;;3.00;99.90;;;;;;4981471;28;20190;-62
2023/12/19 00:54:26;;;;;;;2.53;1.00;;;3.30;98.90;;;;;;4991665;28;20183;-62
2023/12/19 00:56:51;;;;;;;5.17;1.50;;;3.40;98.80;;;;;;4994564;28;20841;-62
2023/12/19 00:59:16;;;;;;;3.80;1.47;;;3.60;97.80;;;;;;4990545;28;20195;-62
2023/12/19 01:01:42;;;;;;;7.23;1.13;;;3.70;97.10;;;;;;4987592;28;20199;-62
2023/12/19 01:04:09;;;;;;;2.20;1.10;;;3.90;96.80;;;;;;4991390;28;20286;-62
2023/12/19 01:06:36;;;;;;;2.83;1.30;;;4.00;96.60;;;;;;4994014;28;20204;-62
2023/12/19 01:09:01;;;;;;;2.90;1.27;;;4.00;96.60;;;;;;4989154;28;20486;-62
2023/12/19 01:11:27;;;;;;;2.63;1.00;;;3.90;96.90;;;;;;4989447;28;20423;-62
2023/12/19 01:13:52;;;;;;;2.30;1.20;;;3.80;96.80;;;;;;4994170;28;20192;-62
2023/12/19 01:16:18;;;;;;;5.17;1.20;;;3.70;96.90;;;;;;4994435;28;20240;-62
2023/12/19 01:18:43;;;;;;;4.20;1.20;;;3.70;97.30;;;;;;4992623;28;20183;-61
2023/12/19 01:21:09;;;;;;;2.17;1.20;;;3.50;97.60;;;;;;4962578;28;20218;-61
2023/12/19 01:23:34;;;;;;;3.40;1.53;;;3.50;97.50;;;;;;4973927;28;20181;-62
2023/12/19 01:25:59;;;;;;;9.83;1.47;;;3.50;97.30;;;;;;4974240;28;20193;-62
2023/12/19 01:28:25;;;;;;;2.10;1.37;;;3.60;97.20;;;;;;4974516;28;20188;-62
2023/12/19 01:30:51;;;;;;;2.70;1.20;;;3.80;96.70;;;;;;4974115;28;20267;-57
2023/12/19 01:33:16;;;;;;;3.73;1.50;;;3.80;97.10;;;;;;4959091;28;20189;-56
2023/12/19 01:35:42;;;;;;;3.47;1.20;;;3.70;97.00;;;;;;4966556;28;20188;-56
2023/12/19 01:38:08;;;;;;;2.80;1.23;;;3.60;97.40;;;;;;4962373;28;20192;-61
2023/12/19 01:40:33;;;;;;;4.17;1.53;;;3.50;98.20;;;;;;4972222;28;20184;-61
2023/12/19 01:42:59;;;;;;;3.30;1.50;;;3.40;98.70;;;;;;4962667;28;20185;-62
2023/12/19 01:45:26;;;;;;;1.93;1.13;;;3.20;98.80;;;;;;4969649;28;20236;-62
2023/12/19 01:47:52;;;;;;;2.00;1.10;;;3.10;98.80;;;;;;4974170;28;20467;-62
2023/12/19 01:50:17;;;;;;;2.07;1.00;;;3.20;98.60;;;;;;4971813;28;20423;-62
2023/12/19 01:52:47;;;;;;;2.03;1.30;;;3.10;98.60;;;;;;4954321;28;20209;-62
2023/12/19 01:55:14;;;;;;;2.90;1.40;;;3.10;98.80;;;;;;4969903;28;20704;-62
2023/12/19 01:57:40;;;;;;;7.07;1.43;;;3.10;98.80;;;;;;4974050;28;20430;-62
2023/12/19 02:00:07;;;;;;;4.60;1.57;;;3.00;99.20;;;;;;4973962;28;20482;-62
2023/12/19 02:02:32;;;;;;;2.60;1.40;;;2.90;99.40;;;;;;4973559;28;20479;-62
2023/12/19 02:04:58;;;;;;;2.43;1.20;;;2.70;99.60;;;;;;4973715;28;20971;-63
2023/12/19 02:07:24;;;;;;;2.40;1.37;;;2.70;99.80;;;;;;4973383;28;20296;-62
2023/12/19 02:09:52;;;;;;;3.30;1.07;;;2.70;99.20;;;;;;4968954;28;20556;-62
2023/12/19 02:12:17;;;;;;;4.93;1.80;;;2.70;99.20;;;;;;4973713;28;20185;-63
2023/12/19 02:14:44;;;;;;;3.60;1.33;;;2.80;98.90;;;;;;4973625;28;20752;-62
2023/12/19 02:17:11;;;;;;;3.27;1.43;;;2.70;99.00;;;;;;4973161;28;20188;-57
2023/12/19 02:19:50;;;;;;;3.73;1.20;;;2.70;98.90;;;;;;4972683;28;20996;-57
2023/12/19 02:22:15;;;;;;;4.53;1.30;;;2.80;98.80;;;;;;4968067;28;20868;-62
2023/12/19 02:24:41;;;;;;;3.70;1.83;;;2.90;98.60;;;;;;4971648;28;21225;-62
2023/12/19 02:27:08;;;;;;;3.80;1.53;;;2.80;98.30;;;;;;4973369;28;20227;-62
2023/12/19 02:29:34;;;;;;;3.00;1.53;;;3.00;98.00;;;;;;4973689;28;20420;-63
2023/12/19 02:31:59;;;;;;;1.50;1.00;;;3.00;98.10;;;;;;4973449;28;20581;-63
2023/12/19 02:34:25;;;;;;;1.77;0.87;;;3.10;97.60;;;;;;4960498;28;20448;-63
2023/12/19 02:36:51;;;;;;;2.97;1.20;;;3.20;97.30;;;;;;4962526;28;20664;-63
2023/12/19 02:39:16;;;;;;;2.40;0.90;;;3.40;96.80;;;;;;4970479;28;20549;-63
2023/12/19 02:41:42;;;;;;;2.10;1.13;;;3.40;96.70;;;;;;4966211;28;20193;-63
2023/12/19 02:44:07;;;;;;;2.90;1.00;;;3.50;96.50;;;;;;4958454;28;20193;-62
2023/12/19 02:46:33;;;;;;;2.90;1.10;;;3.60;96.30;;;;;;4964404;28;20204;-57
2023/12/19 02:48:59;;;;;;;2.43;0.87;;;3.60;96.60;;;;;;4972546;28;20192;-57
2023/12/19 02:51:25;;;;;;;5.23;1.27;;;3.60;96.10;;;;;;4972964;28;20234;-61
2023/12/19 02:53:51;;;;;;;1.87;0.90;;;3.70;96.50;;;;;;4972207;28;20466;-62
2023/12/19 02:56:17;;;;;;;1.63;0.80;;;3.70;96.10;;;;;;4973322;28;20424;-62
2023/12/19 02:58:42;;;;;;;2.53;1.10;;;3.70;95.90;;;;;;4973314;28;20188;-62
2023/12/19 03:01:08;;;;;;;1.43;1.00;;;3.70;95.70;;;;;;4973225;28;20188;-62
2023/12/19 03:03:33;;;;;;;1.70;0.70;;;3.70;95.80;;;;;;4960042;28;20185;-63
2023/12/19 03:06:00;;;;;;;2.57;1.07;;;3.80;95.50;;;;;;4972926;28;20621;-63
2023/12/19 03:08:26;;;;;;;2.40;1.23;;;3.70;95.50;;;;;;4972706;28;20188;-63
2023/12/19 03:10:51;;;;;;;1.67;0.83;;;3.70;95.60;;;;;;4968036;28;20428;-61
2023/12/19 03:13:17;;;;;;;5.50;1.10;;;3.70;96.30;;;;;;4972872;28;20188;-62
2023/12/19 03:15:42;;;;;;;3.70;1.27;;;3.60;96.50;;;;;;4973089;28;20184;-62
2023/12/19 03:18:08;;;;;;;2.83;1.10;;;3.60;96.40;;;;;;4973035;28;20279;-63
2023/12/19 03:20:33;;;;;;;1.93;1.10;;;3.50;96.50;;;;;;4973081;28;20243;-62
2023/12/19 03:22:59;;;;;;;2.53;1.27;;;3.50;96.40;;;;;;4970233;28;20209;-62
2023/12/19 03:25:24;;;;;;;3.37;1.37;;;3.50;96.60;;;;;;4963895;28;20586;-62
2023/12/19 03:27:50;;;;;;;2.90;1.30;;;3.40;96.60;;;;;;4968868;28;20435;-62
2023/12/19 03:30:15;;;;;;;3.73;1.13;;;3.40;97.00;;;;;;4963610;28;20195;-62
2023/12/19 03:32:41;;;;;;;2.23;1.40;;;3.20;97.30;;;;;;4962803;28;20275;-62
2023/12/19 03:35:07;;;;;;;2.03;0.93;;;3.10;98.00;;;;;;4963571;28;20192;-62
2023/12/19 03:37:33;;;;;;;1.90;1.10;;;3.00;97.70;;;;;;4959524;28;20193;-63
2023/12/19 03:39:58;;;;;;;2.40;1.07;;;3.00;97.80;;;;;;4964086;28;20432;-63
2023/12/19 03:42:24;;;;;;;2.77;1.00;;;3.00;97.60;;;;;;4959957;28;20243;-63
2023/12/19 03:44:49;;;;;;;2.60;1.13;;;3.00;98.10;;;;;;4967889;28;20271;-63
2023/12/19 03:47:15;;;;;;;1.90;0.90;;;3.60;98.90;;;;;;4975892;28;20672;-63
2023/12/19 03:49:41;;;;;;;2.40;1.17;;;2.70;99.00;;;;;;4976412;28;20184;-63
2023/12/19 03:52:08;;;;;;;2.07;1.00;;;2.50;99.10;;;;;;4975273;28;20239;-63
2023/12/19 03:54:33;;;;;;;2.80;1.10;;;2.50;99.10;;;;;;4975927;28;20275;-63
2023/12/19 03:56:59;;;;;;;3.03;1.30;;;2.40;99.40;;;;;;4975855;28;20538;-63
2023/12/19 03:59:24;;;;;;;1.83;1.10;;;2.30;99.50;;;;;;4976122;28;20540;-62
2023/12/19 04:01:51;;;;;;;2.07;1.27;;;2.30;99.50;;;;;;4975619;28;20189;-57
2023/12/19 04:04:17;;;;;;;2.97;1.17;;;2.20;99.80;;;;;;4975225;28;20181;-57
2023/12/19 04:06:43;;;;;;;2.40;1.03;;;2.10;99.90;;;;;;4975264;28;20823;-62
2023/12/19 04:09:09;;;;;;;4.20;1.00;;;2.00;99.90;;;;;;4972085;28;20183;-62
2023/12/19 04:11:35;;;;;;;2.60;1.30;;;1.90;99.90;;;;;;4972612;28;20471;-62
2023/12/19 04:14:01;;;;;;;1.77;0.90;;;1.90;99.90;;;;;;4975634;28;20420;-62
2023/12/19 04:16:26;;;;;;;1.77;0.80;;;1.90;99.90;;;;;;4975511;28;20207;-57
2023/12/19 04:18:52;;;;;;;1.80;0.93;;;2.00;99.90;;;;;;4974938;28;20203;-57
2023/12/19 04:21:17;;;;;;;3.20;1.50;;;2.00;99.50;;;;;;4975061;28;20196;-57
2023/12/19 04:23:43;;;;;;;2.93;1.30;;;2.10;99.20;;;;;;4967347;28;20239;-57
2023/12/19 04:26:08;;;;;;;3.43;1.20;;;2.20;99.10;;;;;;4974817;28;20203;-62
2023/12/19 04:28:34;;;;;;;2.57;1.17;;;2.20;99.30;;;;;;4959064;28;20185;-62
2023/12/19 04:30:59;;;;;;;4.07;1.30;;;2.20;99.00;;;;;;4971851;28;21536;-62
2023/12/19 04:33:25;;;;;;;3.40;1.87;;;2.40;98.50;;;;;;4962388;28;20272;-62
2023/12/19 04:35:50;;;;;;;2.53;1.13;;;2.50;98.00;;;;;;4968992;28;20185;-62
2023/12/19 04:38:15;;;;;;;2.83;1.37;;;2.60;98.00;;;;;;4964483;28;20224;-62
2023/12/19 04:40:41;;;;;;;2.17;1.17;;;2.60;98.10;;;;;;4975048;28;21519;-62
2023/12/19 04:43:06;;;;;;;2.90;1.03;;;2.70;97.80;;;;;;4962067;28;20201;-62
2023/12/19 04:45:32;;;;;;;1.97;1.00;;;2.80;97.50;;;;;;4970349;28;20378;-63
2023/12/19 04:47:58;;;;;;;4.60;1.57;;;2.80;97.60;;;;;;4969457;28;20212;-63
2023/12/19 04:50:23;;;;;;;2.30;0.90;;;2.90;97.30;;;;;;4970246;28;20197;-62
2023/12/19 04:52:48;;;;;;;2.43;1.17;;;2.90;97.20;;;;;;4964524;28;20182;-62
2023/12/19 04:55:14;;;;;;;3.43;1.10;;;2.90;97.50;;;;;;4974219;28;20200;-62
2023/12/19 04:57:39;;;;;;;1.80;0.70;;;2.80;97.70;;;;;;4974358;28;20200;-62
2023/12/19 05:00:06;;;;;;;3.00;1.30;;;2.80;98.00;;;;;;4974528;28;20193;-64
2023/12/19 05:02:32;;;;;;;4.27;1.33;;;2.70;97.70;;;;;;4975033;28;20236;-63
2023/12/19 05:04:57;;;;;;;3.07;1.30;;;2.70;98.00;;;;;;4972177;28;20427;-63
2023/12/19 05:07:24;;;;;;;1.73;1.00;;;2.60;97.90;;;;;;4974431;28;20656;-62
2023/12/19 05:09:50;;;;;;;3.60;1.60;;;2.60;97.50;;;;;;4962144;28;20626;-62
2023/12/19 05:12:15;;;;;;;2.70;1.57;;;2.50;97.90;;;;;;4967379;28;20420;-57
2023/12/19 05:14:41;;;;;;;4.70;1.30;;;2.50;98.30;;;;;;4967128;28;20193;-57
2023/12/19 05:17:06;;;;;;;3.00;1.10;;;2.40;98.20;;;;;;4973975;28;20192;-57
2023/12/19 05:19:32;;;;;;;3.80;1.37;;;2.30;98.50;;;;;;4973711;28;20224;-57
2023/12/19 05:21:57;;;;;;;9.80;1.50;;;2.20;98.80;;;;;;4974146;28;20223;-62
2023/12/19 05:24:23;;;;;;;2.40;1.20;;;2.20;98.90;;;;;;4971533;28;20556;-62
2023/12/19 05:26:48;;;;;;;2.10;1.07;;;2.30;98.70;;;;;;4963727;28;20204;-62
2023/12/19 05:29:14;;;;;;;4.30;1.30;;;2.30;98.60;;;;;;4974096;28;20216;-62
2023/12/19 05:31:39;;;;;;;2.50;1.10;;;2.30;98.60;;;;;;4972174;28;20671;-57
2023/12/19 05:34:05;;;;;;;1.67;0.93;;;2.30;98.10;;;;;;4953453;28;20239;-57
2023/12/19 05:36:34;;;;;;;2.23;0.97;;;2.40;98.00;;;;;;4962598;28;20212;-57
2023/12/19 05:39:00;;;;;;;4.10;1.20;;;2.80;98.00;;;;;;4956750;28;20472;-56
2023/12/19 05:41:25;;;;;;;4.37;1.50;;;2.40;98.00;;;;;;4957408;28;20436;-57
2023/12/19 05:43:56;;;;;;;4.50;1.47;;;2.30;98.30;;;;;;4961764;28;20895;-57
2023/12/19 05:46:21;;;;;;;3.60;1.37;;;2.30;98.10;;;;;;4973588;28;20286;-62
2023/12/19 05:48:47;;;;;;;3.73;1.53;;;3.20;97.90;;;;;;4974596;28;20503;-63
2023/12/19 05:51:12;;;;;;;1.93;1.00;;;2.50;97.50;;;;;;4974364;28;20196;-63
2023/12/19 05:53:38;;;;;;;4.57;1.40;;;2.60;97.40;;;;;;4971675;28;20713;-63
2023/12/19 05:56:04;;;;;;;3.10;1.10;;;2.60;97.60;;;;;;4964305;28;20196;-63
2023/12/19 05:58:30;;;;;;;2.70;1.10;;;2.50;97.40;;;;;;4974255;28;20271;-63
2023/12/19 06:00:55;;;;;;;2.60;1.17;;;2.50;97.50;;;;;;4965248;28;20503;-63
2023/12/19 06:03:21;;;;;;;2.60;1.17;;;2.50;97.30;;;;;;4957056;28;20646;-62
2023/12/19 06:05:47;;;;;;;3.67;1.53;;;2.50;98.00;;;;;;4974244;28;20176;-62
2023/12/19 06:08:12;;;;;;;2.47;0.93;;;2.40;97.90;;;;;;4960476;28;20223;-62
2023/12/19 06:10:38;;;;;;;3.53;1.40;;;2.40;97.50;;;;;;4974139;28;20670;-62
2023/12/19 06:13:05;;;;;;;3.00;1.13;;;2.40;97.20;;;;;;4973667;28;20189;-62
2023/12/19 06:15:30;;;;;;;3.00;1.00;;;2.50;96.90;;;;;;4973789;28;20176;-62
2023/12/19 06:17:56;;;;;;;3.30;1.17;;;2.60;96.70;;;;;;4973955;28;21189;-62
2023/12/19 06:20:21;;;;;;;1.93;1.10;;;2.70;96.40;;;;;;4967069;28;20827;-62
2023/12/19 06:22:47;;;;;;;4.70;1.63;;;2.80;96.40;;;;;;4969824;28;20192;-62
2023/12/19 06:25:13;;;;;;;2.10;1.30;;;2.70;96.50;;;;;;4974053;28;20255;-62
2023/12/19 06:27:40;;;;;;;5.67;1.60;;;2.70;96.40;;;;;;4959765;28;20800;-57
2023/12/19 06:30:08;;;;;;;2.50;1.23;;;2.70;96.70;;;;;;4972617;28;20212;-56
2023/12/19 06:32:34;;;;;;;3.57;1.43;;;2.70;96.60;;;;;;4963535;28;20519;-56
2023/12/19 06:35:07;;;;;;;3.60;1.40;;;2.60;96.80;;;;;;4962426;28;20439;-57
2023/12/19 06:37:33;;;;;;;2.77;1.40;;;2.70;96.30;;;;;;4954060;28;20534;-62
2023/12/19 06:39:59;;;;;;;3.20;1.13;;;2.70;96.00;;;;;;4955217;28;20568;-62
2023/12/19 06:42:25;;;;;;;3.73;1.57;;;2.80;96.10;;;;;;4960483;28;20689;-62
2023/12/19 06:44:50;;;;;;;2.80;1.33;;;2.70;96.10;;;;;;4972414;28;20447;-62
2023/12/19 06:47:16;;;;;;;3.33;1.20;;;2.70;96.30;;;;;;4959345;28;20600;-62
2023/12/19 06:49:43;;;;;;;2.70;1.20;;;2.70;96.30;;;;;;4972614;28;20188;-62
2023/12/19 06:52:09;;;;;;;1.97;1.30;;;2.50;96.80;;;;;;4972554;28;20183;-62
2023/12/19 06:54:38;;;;;;;1.80;1.03;;;2.50;96.80;;;;;;4972330;28;20424;-62
2023/12/19 06:57:04;;;;;;;2.17;1.10;;;2.60;96.60;;;;;;4972451;28;20192;-62
2023/12/19 06:59:32;;;;;;;3.13;1.13;;;2.50;97.00;;;;;;4949280;28;20433;-62
2023/12/19 07:01:58;;;;;;;2.23;1.13;;;2.40;97.20;;;;;;4963837;28;20432;-62
2023/12/19 07:04:23;;;;;;;1.60;0.90;;;2.20;97.70;;;;;;4962082;28;20438;-62
2023/12/19 07:06:49;;;;;;;1.83;1.00;;;2.20;97.40;;;;;;4949796;28;20778;-62
2023/12/19 07:09:14;;;;;;;4.40;1.60;;;2.10;97.70;;;;;;4968541;28;20188;-62
2023/12/19 07:11:41;;;;;;;2.70;1.13;;;2.20;96.80;;;;;;4954612;28;20646;-62
2023/12/19 07:14:07;;;;;;;3.80;1.40;;;2.20;96.70;;;;;;4969800;28;20271;-62
2023/12/19 07:16:33;;;;;;;4.70;1.67;;;2.20;96.60;;;;;;4968761;28;20825;-62
2023/12/19 07:19:00;;;;;;;3.50;1.60;;;2.20;96.70;;;;;;4971440;28;20568;-62
2023/12/19 07:21:26;;;;;;;2.13;1.40;;;2.30;96.70;;;;;;4974916;28;20586;-62
2023/12/19 07:23:52;;;;;;;4.70;1.17;;;2.20;96.90;;;;;;4963870;28;20436;-62
2023/12/19 07:26:20;;;;;;;7.60;3.30;;;2.10;96.50;;;;;;4971960;28;20909;-63
2023/12/19 07:28:45;;;;;;;4.90;2.57;;;2.00;96.70;;;;;;4974755;28;20719;-63
2023/12/19 07:31:22;;;;;;;3.20;1.87;;;2.00;96.70;;;;;;4961512;28;20419;-62
2023/12/19 07:33:47;;;;;;;1.97;1.00;;;2.00;96.20;;;;;;4955392;28;20193;-62
2023/12/19 07:36:12;;;;;;;3.73;1.77;;;2.30;95.40;;;;;;4967486;28;20425;-64
2023/12/19 07:38:38;;;;;;;4.93;2.20;;;2.60;94.60;;;;;;4966552;28;20223;-64
2023/12/19 07:41:04;;;;;;;5.53;1.67;;;2.80;94.80;;;;;;4974091;28;20671;-57
2023/12/19 07:43:31;;;;;;;2.70;1.00;;;2.70;95.40;;;;;;4967306;28;20232;-57
2023/12/19 07:45:57;;;;;;;1.60;0.70;;;2.70;95.10;;;;;;4974335;28;20203;-64
2023/12/19 07:48:22;;;;;;;4.77;2.03;;;2.70;95.20;;;;;;4963014;28;20490;-64
2023/12/19 07:50:48;;;;;;;3.80;1.70;;;2.80;94.70;;;;;;4974459;28;20188;-64
2023/12/19 07:53:13;;;;;;;4.80;1.83;;;2.80;94.50;;;;;;4975235;28;20186;-64
2023/12/19 07:55:39;;;;;;;9.60;2.70;;;2.90;94.40;;;;;;4974871;28;20188;-64
2023/12/19 07:58:06;;;;;;;7.47;2.40;;;3.00;94.30;;;;;;4974860;28;20207;-64
2023/12/19 08:00:33;;;;;;;3.90;1.67;;;2.90;94.70;;;;;;4968813;28;20921;-64
2023/12/19 08:02:58;;;;;;;3.80;1.77;;;2.70;95.70;;;;;;4955310;29;20432;-64
2023/12/19 08:05:24;;;;;;;6.43;2.53;;;2.60;96.50;;;;;;4974400;28;20935;-64
2023/12/19 08:07:49;;;;;;;5.00;1.80;;;2.50;96.10;;;;;;4974508;28;20215;-64
2023/12/19 08:10:15;;;;;;;10.20;1.33;;;2.50;96.40;;;;;;4969403;28;20192;-64
2023/12/19 08:12:41;;;;;;;7.17;2.13;;;2.40;97.10;;;;;;4974616;28;20271;-64
2023/12/19 08:15:09;;;;;;;3.13;1.60;;;2.40;97.40;;;;;;4969192;28;20188;-64
2023/12/19 08:17:36;;;;;;;5.30;2.07;;;2.20;97.90;;;;;;4967237;28;20189;-64
2023/12/19 08:20:03;;;;;;;4.77;1.93;;;2.20;97.50;;;;;;4974059;28;20488;-64
2023/12/19 08:22:28;;;;;;;5.30;2.00;;;2.20;97.30;;;;;;4974040;28;20912;-64
2023/12/19 08:24:54;;;;;;;2.43;1.40;;;2.30;97.70;;;;;;4974397;28;20435;-64
2023/12/19 08:27:22;;;;;;;3.23;1.30;;;2.40;97.00;;;;;;4964923;28;20212;-64
2023/12/19 08:29:48;;;;;;;3.00;1.37;;;2.50;96.40;;;;;;4962593;28;20184;-64
2023/12/19 08:32:14;;;;;;;2.00;1.20;;;2.60;96.80;;;;;;4963882;28;20424;-64
2023/12/19 08:34:41;;;;;;;1.60;0.80;;;2.80;95.80;;;;;;4962234;28;20260;-64
2023/12/19 08:37:06;;;;;;;2.00;1.00;;;2.90;95.40;;;;;;4962324;28;20292;-57
2023/12/19 08:39:32;;;;;;;2.10;1.20;;;3.00;96.00;;;;;;4956611;28;20504;-57
2023/12/19 08:41:59;;;;;;;9.10;1.63;;;3.00;95.50;;;;;;4968073;28;20195;-64
2023/12/19 08:44:26;;;;;;;3.30;1.40;;;3.00;96.10;;;;;;4967441;28;20547;-65
2023/12/19 08:46:52;;;;;;;1.97;1.00;;;3.20;95.40;;;;;;4974467;28;20608;-65
2023/12/19 08:49:18;;;;;;;2.73;1.13;;;3.20;95.70;;;;;;4948470;28;20416;-65
2023/12/19 08:51:47;;;;;;;2.73;1.03;;;3.40;94.90;;;;;;4974694;28;20416;-65
2023/12/19 08:54:13;;;;;;;6.13;1.57;;;3.50;95.00;;;;;;4948712;28;20189;-65
2023/12/19 08:56:38;;;;;;;3.17;1.20;;;3.50;95.70;;;;;;4974358;28;20424;-65
2023/12/19 08:59:04;;;;;;;1.80;0.80;;;3.90;93.70;;;;;;4974956;28;20212;-63
2023/12/19 09:01:29;;;;;;;2.03;1.00;;;4.00;93.50;;;;;;4963260;28;20260;-58
2023/12/19 09:03:55;;;;;;;4.23;1.63;;;4.00;93.50;;;;;;4955302;28;20513;-58
2023/12/19 09:06:21;;;;;;;2.27;1.03;;;4.10;93.80;;;;;;4954966;28;20185;-65
2023/12/19 09:08:47;;;;;;;2.27;1.13;;;4.10;94.30;;;;;;4961121;28;20337;-64
2023/12/19 09:11:12;;;;;;;2.40;1.33;;;4.90;94.40;;;;;;4976604;28;20408;-64
2023/12/19 09:13:39;;;;;;;4.20;1.40;;;4.30;93.60;;;;;;4976288;28;20184;-64
2023/12/19 09:16:08;;;;;;;2.90;1.20;;;4.30;93.30;;;;;;4964106;28;20276;-64
2023/12/19 09:18:34;;;;;;;3.00;1.17;;;4.60;92.90;;;;;;4956998;29;20417;-64
2023/12/19 09:21:00;;;;;;;3.70;1.10;;;4.60;93.30;;;;;;4975313;28;20784;-61
2023/12/19 09:23:26;;;;;;;4.43;1.10;;;4.80;91.90;;;;;;4995374;28;20184;-64
2023/12/19 09:25:51;;;;;;;3.53;1.27;;;4.90;92.40;;;;;;4995393;28;20943;-58
2023/12/19 09:28:17;;;;;;;4.50;1.27;;;5.20;91.30;;;;;;4979509;28;20212;-58
2023/12/19 09:30:42;;;;;;;3.80;1.10;;;5.30;91.70;;;;;;4979731;28;20198;-58
2023/12/19 09:33:08;;;;;;;3.80;1.10;;;5.50;91.10;;;;;;4988728;28;20769;-62
2023/12/19 09:35:33;;;;;;;3.53;1.17;;;5.60;91.00;;;;;;4975962;28;20176;-62
2023/12/19 09:38:01;;;;;;;2.27;0.97;;;5.70;91.20;;;;;;4975854;28;20219;-62
2023/12/19 09:40:29;;;;;;;1.73;0.93;;;6.00;90.30;;;;;;4987831;28;20187;-62
2023/12/19 09:42:57;;;;;;;5.90;1.87;;;6.30;90.30;;;;;;4986854;28;20593;-64
2023/12/19 09:45:23;;;;;;;3.60;1.30;;;6.70;88.10;;;;;;4975728;28;20415;-64
2023/12/19 09:48:14;;;;;;;3.30;1.10;;;6.70;88.60;;;;;;4983816;28;20808;-64
2023/12/19 09:50:47;;;;;;;3.63;1.07;;;6.80;87.80;;;;;;4977286;28;20677;-64
2023/12/19 09:53:15;;;;;;;2.90;1.17;;;6.90;85.00;;;;;;4995191;28;20430;-64
2023/12/19 09:55:44;;;;;;;1.77;1.07;;;6.80;84.60;;;;;;4994889;28;20419;-64
2023/12/19 09:58:15;;;;;;;3.03;1.30;;;6.90;85.50;;;;;;4977636;28;20423;-63
2023/12/19 10:00:44;;;;;;;4.30;1.10;;;7.10;84.10;;;;;;4995080;28;20399;-63
2023/12/19 10:03:11;;;;;;;2.30;0.90;;;7.20;84.50;;;;;;4963895;28;20442;-63
2023/12/19 10:05:40;;;;;;;3.33;0.93;;;7.20;82.70;;;;;;4975495;28;20527;-64
2023/12/19 10:08:07;;;;;;;1.73;0.80;;;7.40;82.00;;;;;;4984513;28;20491;-58
2023/12/19 10:10:54;;;;;;;2.80;1.23;;;7.40;81.00;;;;;;4987260;28;20433;-58
2023/12/19 10:13:33;;;;;;;2.13;0.90;;;7.40;82.80;;;;;;4974858;28;20435;-58
2023/12/19 10:16:03;;;;;;;3.10;1.47;;;7.40;82.20;;;;;;4977869;28;20423;-58
2023/12/19 10:18:30;;;;;;;5.07;1.57;;;7.20;82.30;;;;;;4962012;28;20930;-59
2023/12/19 10:21:15;;;;;;;3.00;1.47;;;7.10;83.60;;;;;;4974678;28;20478;-62
2023/12/19 10:26:37;;;;;;;2.83;1.43;;;7.20;80.20;;;;;;4995655;28;20505;-62
2023/12/19 10:29:06;;;;;;;4.43;1.53;;;7.10;82.90;;;;;;4995779;28;20410;-63
2023/12/19 10:32:17;;;;;;;2.53;1.60;;;7.10;83.70;;;;;;4995396;28;20415;-62
2023/12/19 10:34:57;;;;;;;3.47;1.63;;;7.10;85.00;;;;;;4986663;28;20419;-63
2023/12/19 10:37:30;;;;;;;2.83;1.30;;;7.20;84.50;;;;;;4994923;28;20457;-63
2023/12/19 10:40:09;;;;;;;4.13;1.63;;;7.20;88.00;;;;;;4994915;28;20485;-63
2023/12/19 10:42:39;;;;;;;3.23;1.23;;;7.00;90.00;;;;;;4994690;28;20961;-63
2023/12/19 10:45:13;;;;;;;3.03;1.40;;;7.10;87.70;;;;;;4975935;28;20423;-63
2023/12/19 10:47:40;;;;;;;4.90;1.57;;;6.90;89.50;;;;;;4975291;28;20545;-63
2023/12/19 10:50:09;;;;;;;2.90;1.50;;;6.70;89.10;;;;;;4958138;28;20428;-63
2023/12/19 10:52:46;;;;;;;7.00;2.23;;;6.60;88.90;;;;;;4957951;28;20479;-63
2023/12/19 10:55:21;;;;;;;12.70;2.37;;;6.40;92.00;;;;;;4978068;28;20396;-63
2023/12/19 10:57:52;;;;;;;10.17;2.03;;;6.10;93.00;;;;;;4962051;28;20506;-62
2023/12/19 11:00:26;;;;;;;3.00;1.33;;;6.00;93.80;;;;;;4961451;28;20499;-63
2023/12/19 11:03:33;;;;;;;7.17;1.80;;;5.70;94.60;;;;;;4961853;28;20443;-62
2023/12/19 11:06:23;;;;;;;4.70;2.50;;;5.50;95.10;;;;;;4979136;28;20769;-63
2023/12/19 11:08:51;;;;;;;6.30;3.13;;;5.20;96.40;;;;;;4979164;28;20408;-63
2023/12/19 11:11:32;;;;;;;10.00;3.57;;;5.00;96.70;;;;;;4979143;28;20788;-62
2023/12/19 11:14:08;;;;;;;6.87;2.83;;;4.80;97.00;;;;;;4970797;28;20811;-62
2023/12/19 11:16:59;;;;;;;8.27;2.30;;;4.50;97.50;;;;;;4980716;28;20473;-62
2023/12/19 11:19:33;;;;;;;9.10;4.07;;;4.20;98.50;;;;;;4980485;28;20557;-63
2023/12/19 11:22:11;;;;;;;5.30;2.40;;;4.00;99.30;;;;;;4998375;28;20430;-62
2023/12/19 11:25:13;;;;;;;5.70;3.27;;;3.90;99.90;;;;;;4998076;28;20403;-62
2023/12/19 11:27:52;;;;;;;7.50;3.57;;;4.00;99.90;;;;;;4944315;28;20469;-62
2023/12/19 11:30:46;;;;;;;8.97;3.80;;;3.80;99.90;;;;;;4980255;28;20793;-62
2023/12/19 11:33:38;;;;;;;8.70;3.70;;;3.70;99.90;;;;;;4966215;28;20792;-62
2023/12/19 11:36:16;;;;;;;10.27;4.03;;;3.60;99.90;;;;;;4978343;28;20396;-62
2023/12/19 11:38:49;;;;;;;7.17;3.80;;;3.50;99.90;;;;;;4990911;28;20517;-63
2023/12/19 11:42:01;;;;;;;9.47;4.10;;;3.40;99.90;;;;;;4980268;28;20481;-63
2023/12/19 11:44:39;;;;;;;7.20;3.47;;;3.40;99.90;;;;;;4952065;28;20454;-63
2023/12/19 11:47:20;;;;;;;6.00;3.67;;;3.40;99.90;;;;;;4979910;28;20458;-62
2023/12/19 11:49:47;;;;;;;6.07;3.43;;;3.50;99.90;;;;;;4980148;28;20414;-63
2023/12/19 11:52:32;;;;;;;7.47;3.13;;;3.50;99.90;;;;;;4997315;28;20415;-63
2023/12/19 11:55:02;;;;;;;16.30;4.30;;;3.60;99.90;;;;;;4997397;28;20438;-63
2023/12/19 11:57:40;;;;;;;10.00;4.80;;;3.70;99.90;;;;;;4997638;28;20430;-63
2023/12/19 12:00:28;;;;;;;6.83;3.90;;;3.80;99.90;;;;;;4980043;28;20458;-63
2023/12/19 12:03:33;;;;;;;6.40;3.63;;;3.70;99.90;;;;;;4997259;28;20755;-62
2023/12/19 12:06:32;;;;;;;8.57;4.50;;;3.60;99.90;;;;;;4996789;28;20411;-63
2023/12/19 12:09:15;;;;;;;;;;;;;;;;;;;;;
2023/12/19 12:12:10;;;;;;;;;;;;;;;;;;;;;
2023/12/19 12:19:04;;;;;;;;;;;;;;;;;;;;;
2023/12/19 12:22:21;;;;;;;9.37;4.63;;;3.60;99.90;;;;;;4920890;29;20422;-63
2023/12/19 12:24:58;;;;;;;9.07;4.07;;;3.70;99.90;;;;;;4917974;29;20442;-62
2023/12/19 12:27:28;;;;;;;8.33;4.50;;;3.80;99.90;;;;;;4958154;28;21069;-63
2023/12/19 12:29:58;;;;;;;9.73;4.70;;;3.80;99.90;;;;;;4957924;29;20468;-63
2023/12/19 12:32:33;;;;;;;9.53;4.80;;;3.80;99.90;;;;;;4965874;28;20491;-63
2023/12/19 12:35:23;;;;;;;8.03;4.23;;;3.90;99.90;;;;;;4977143;28;20428;-63
2023/12/19 12:38:41;;;;;;;9.30;4.90;;;3.80;99.90;;;;;;4959961;28;20412;-63
2023/12/19 12:41:06;;;;;;;10.80;5.30;;;3.70;99.90;;;;;;4963311;28;20436;-63
2023/12/19 12:43:50;;;;;;;11.10;5.43;;;3.60;99.90;;;;;;4959898;28;20426;-63
2023/12/19 12:46:19;;;;;;;12.23;6.07;;;3.60;99.90;;;;;;4977102;28;20400;-64
2023/12/19 12:48:54;;;;;;;9.93;5.33;;;3.60;99.90;;;;;;4974385;28;20440;-63
2023/12/19 12:51:26;;;;;;;12.90;5.00;;;3.50;99.90;;;;;;4996451;28;20875;-63
2023/12/19 12:53:57;;;;;;;9.90;4.60;;;3.50;99.90;;;;;;4979055;28;20908;-63
2023/12/19 12:56:52;;;;;;;12.47;5.70;;;3.40;99.90;;;;;;4977179;28;20411;-63
2023/12/19 13:00:01;;;;;;;12.90;4.67;;;3.60;99.90;;;;;;4960021;28;20917;-63
2023/12/19 13:02:33;;;;;;;11.40;5.80;;;3.60;99.90;;;;;;4967164;28;20420;-63
2023/12/19 13:05:05;;;;;;;12.47;5.70;;;3.60;99.90;;;;;;4977127;28;20424;-63
2023/12/19 13:17:21;;;;;;;11.73;5.80;;;3.60;99.90;;;;;;4916720;29;20471;-63
2023/12/19 13:19:50;;;;;;;11.00;5.53;;;3.60;99.90;;;;;;4901131;29;20474;-63
2023/12/19 13:22:19;;;;;;;25.23;8.00;;;3.60;99.90;;;;;;4917181;29;20430;-63
2023/12/19 13:28:02;;;;;;;19.10;7.77;;;3.70;99.90;;;;;;4957256;29;20491;-63
2023/12/19 13:30:33;;;;;;;22.57;8.67;;;3.70;99.90;;;;;;4956938;28;20416;-63